createdAt,value
2018-04-25T00:01:22.732Z,10.11
2018-04-25T00:03:51.055Z,10.06
2018-04-25T00:06:19.351Z,9.91
2018-04-25T00:08:47.635Z,9.89
2018-04-25T00:11:15.951Z,9.80
2018-04-25T00:13:44.237Z,9.68
2018-04-25T00:16:12.519Z,9.59
2018-04-25T00:18:40.832Z,9.64
2018-04-25T00:21:09.130Z,9.79
2018-04-25T00:23:37.443Z,9.82
2018-04-25T00:26:06.528Z,9.77
2018-04-25T00:28:34.879Z,9.72
2018-04-25T00:31:03.169Z,9.63
2018-04-25T00:33:32.220Z,9.56
2018-04-25T00:36:01.323Z,9.62
2018-04-25T00:38:29.615Z,9.54
2018-04-25T00:40:57.907Z,9.62
2018-04-25T00:43:26.295Z,9.49
2018-04-25T00:45:54.583Z,9.46
2018-04-25T00:48:22.872Z,9.42
2018-04-25T00:50:51.208Z,9.41
2018-04-25T00:53:19.512Z,9.29
2018-04-25T00:55:47.803Z,9.37
2018-04-25T00:58:16.159Z,9.44
2018-04-25T01:00:44.456Z,9.37
2018-04-25T01:03:13.571Z,9.26
2018-04-25T01:05:42.080Z,9.20
2018-04-25T01:08:10.367Z,9.23
2018-04-25T01:10:38.663Z,9.30
2018-04-25T01:13:06.971Z,9.39
2018-04-25T01:15:35.262Z,9.34
2018-04-25T01:18:03.587Z,9.45
2018-04-25T01:20:31.868Z,9.63
2018-04-25T01:23:00.156Z,9.51
2018-04-25T01:25:33.075Z,9.31
2018-04-25T01:41:32.035Z,9.15
2018-04-25T01:44:00.324Z,9.04
2018-04-25T01:46:31.591Z,9.07
2018-04-25T02:02:43.736Z,9.05
2018-04-25T02:05:12.037Z,9.17
2018-04-25T02:07:40.412Z,9.19
2018-04-25T02:10:08.746Z,9.30
2018-04-25T02:12:37.682Z,9.34
2018-04-25T02:15:06.448Z,9.11
2018-04-25T02:17:35.458Z,8.93
2018-04-25T02:20:04.382Z,8.80
2018-04-25T02:22:33.383Z,8.71
2018-04-25T02:25:01.676Z,8.63
2018-04-25T02:27:30.011Z,8.65
2018-04-25T02:29:58.312Z,8.82
2018-04-25T02:32:27.288Z,8.87
2018-04-25T02:34:55.731Z,8.79
2018-04-25T02:37:24.343Z,8.74
2018-04-25T02:39:52.671Z,8.85
2018-04-25T02:42:21.044Z,8.93
2018-04-25T02:44:49.555Z,8.87
2018-04-25T02:47:17.868Z,8.65
2018-04-25T02:49:46.250Z,8.52
2018-04-25T02:52:14.554Z,8.60
2018-04-25T02:54:43.599Z,8.65
2018-04-25T02:57:12.277Z,8.80
2018-04-25T02:59:40.580Z,8.67
2018-04-25T03:02:08.879Z,8.50
2018-04-25T03:04:36.979Z,8.45
2018-04-25T03:07:05.276Z,8.33
2018-04-25T03:09:33.584Z,8.21
2018-04-25T03:12:01.896Z,8.34
2018-04-25T03:14:30.651Z,8.46
2018-04-25T03:16:58.749Z,8.20
2018-04-25T03:19:27.807Z,8.11
2018-04-25T03:21:56.095Z,8.17
2018-04-25T03:24:24.436Z,8.25
2018-04-25T03:26:52.720Z,8.22
2018-04-25T03:29:21.008Z,8.33
2018-04-25T03:31:49.336Z,8.24
2018-04-25T03:34:18.192Z,8.36
2018-04-25T03:36:46.471Z,8.39
2018-04-25T03:39:14.783Z,8.25
2018-04-25T03:41:43.088Z,8.23
2018-04-25T03:44:11.589Z,8.23
2018-04-25T03:46:39.866Z,8.22
2018-04-25T03:49:08.155Z,8.18
2018-04-25T03:51:37.763Z,8.31
2018-04-25T03:54:06.064Z,8.36
2018-04-25T03:56:34.684Z,8.37
2018-04-25T03:59:03.601Z,8.19
2018-04-25T04:01:31.896Z,8.20
2018-04-25T04:04:00.233Z,8.26
2018-04-25T04:06:29.806Z,8.33
2018-04-25T04:08:58.091Z,8.32
2018-04-25T04:11:27.209Z,8.42
2018-04-25T04:13:55.764Z,8.29
2018-04-25T04:16:24.323Z,8.24
2018-04-25T04:18:53.170Z,8.34
2018-04-25T04:21:21.477Z,8.28
2018-04-25T04:23:49.796Z,8.72
2018-04-25T04:26:18.096Z,9.07
2018-04-25T04:28:46.376Z,9.22
2018-04-25T04:31:15.427Z,8.91
2018-04-25T04:33:44.360Z,8.76
2018-04-25T04:36:12.660Z,8.71
2018-04-25T04:38:40.959Z,8.86
2018-04-25T04:41:09.811Z,8.98
2018-04-25T04:43:38.116Z,8.95
2018-04-25T04:46:06.427Z,9.05
2018-04-25T04:48:34.780Z,9.11
2018-04-25T04:51:03.162Z,9.17
2018-04-25T04:53:31.253Z,9.24
2018-04-25T04:55:59.600Z,9.37
2018-04-25T04:58:27.880Z,9.61
2018-04-25T05:00:56.174Z,10.25
2018-04-25T05:03:24.531Z,11.04
2018-04-25T05:05:52.888Z,11.44
2018-04-25T05:08:21.198Z,12.43
2018-04-25T05:10:49.499Z,13.15
2018-04-25T05:13:17.820Z,13.86
2018-04-25T05:15:46.028Z,14.38
2018-04-25T05:18:14.324Z,14.87
2018-04-25T05:20:42.679Z,15.38
2018-04-25T05:23:10.983Z,15.49
2018-04-25T05:25:39.751Z,16.03
2018-04-25T05:28:08.225Z,16.36
2018-04-25T05:30:36.554Z,16.23
2018-04-25T05:33:05.603Z,16.11
2018-04-25T05:35:33.932Z,16.43
2018-04-25T05:38:02.991Z,16.82
2018-04-25T05:40:31.361Z,17.33
2018-04-25T05:42:59.839Z,17.65
2018-04-25T05:45:28.314Z,17.52
2018-04-25T05:47:56.628Z,17.46
2018-04-25T05:50:24.975Z,17.75
2018-04-25T05:52:53.372Z,17.96
2018-04-25T05:55:21.663Z,18.79
2018-04-25T05:57:50.003Z,19.28
2018-04-25T06:00:18.304Z,18.93
2018-04-25T06:02:47.408Z,19.05
2018-04-25T06:05:15.695Z,19.53
2018-04-25T06:07:45.031Z,20.25
2018-04-25T06:10:14.289Z,21.08
2018-04-25T06:12:42.600Z,21.98
2018-04-25T06:15:10.900Z,22.37
2018-04-25T06:17:39.358Z,22.60
2018-04-25T06:20:07.656Z,22.43
2018-04-25T06:22:35.975Z,22.45
2018-04-25T06:25:04.344Z,22.31
2018-04-25T06:27:32.647Z,21.68
2018-04-25T06:30:01.995Z,21.85
2018-04-25T06:32:30.332Z,20.80
2018-04-25T06:34:58.626Z,21.03
2018-04-25T06:37:26.959Z,22.79
2018-04-25T06:39:55.983Z,23.34
2018-04-25T06:42:25.250Z,22.91
2018-04-25T06:44:53.702Z,23.33
2018-04-25T06:47:22.549Z,23.59
2018-04-25T06:49:50.875Z,24.24
2018-04-25T06:52:19.215Z,23.59
2018-04-25T06:54:47.875Z,23.95
2018-04-25T06:57:16.174Z,24.18
2018-04-25T06:59:44.819Z,25.05
2018-04-25T07:02:13.327Z,25.57
2018-04-25T07:04:42.874Z,25.37
2018-04-25T07:07:11.411Z,25.34
2018-04-25T07:09:39.719Z,26.04
2018-04-25T07:12:08.079Z,25.88
2018-04-25T07:14:36.371Z,25.78
2018-04-25T07:17:04.919Z,25.70
2018-04-25T07:19:34.188Z,26.59
2018-04-25T07:22:02.827Z,26.72
2018-04-25T07:24:31.115Z,27.33
2018-04-25T07:27:00.782Z,27.27
2018-04-25T07:29:29.372Z,28.13
2018-04-25T07:31:58.109Z,28.71
2018-04-25T07:34:26.155Z,26.93
2018-04-25T07:36:54.444Z,26.04
2018-04-25T07:39:22.808Z,25.40
2018-04-25T07:41:51.199Z,25.56
2018-04-25T07:44:19.452Z,25.19
2018-04-25T07:46:48.343Z,24.49
2018-04-25T07:49:16.647Z,24.39
2018-04-25T07:51:44.964Z,26.05
2018-04-25T07:54:13.255Z,27.11
2018-04-25T07:56:41.974Z,27.39
2018-04-25T07:59:10.314Z,26.72
2018-04-25T08:01:38.595Z,25.50
2018-04-25T08:04:07.747Z,25.78
2018-04-25T08:06:37.304Z,26.16
2018-04-25T08:09:05.591Z,26.62
2018-04-25T08:11:33.896Z,26.95
2018-04-25T08:14:20.988Z,25.40
2018-04-25T08:17:06.771Z,26.63
2018-04-25T08:19:52.707Z,27.62
2018-04-25T08:22:21.000Z,27.35
2018-04-25T08:24:49.296Z,27.49
2018-04-25T08:27:17.697Z,29.13
2018-04-25T08:29:46.679Z,28.52
2018-04-25T08:32:15.005Z,28.27
2018-04-25T08:34:43.271Z,26.44
2018-04-25T08:37:11.439Z,25.72
2018-04-25T08:39:40.598Z,28.05
2018-04-25T08:42:08.939Z,28.22
2018-04-25T08:44:37.840Z,25.52
2018-04-25T08:47:06.251Z,26.06
2018-04-25T08:49:35.351Z,25.09
2018-04-25T08:52:04.277Z,26.29
2018-04-25T08:54:32.608Z,25.63
2018-04-25T08:57:01.279Z,24.23
2018-04-25T08:59:29.568Z,24.03
2018-04-25T09:01:58.675Z,24.04
2018-04-25T09:04:27.446Z,24.56
2018-04-25T09:06:55.786Z,23.96
2018-04-25T09:09:24.623Z,26.37
2018-04-25T09:11:53.715Z,25.79
2018-04-25T09:14:22.211Z,26.60
2018-04-25T09:16:50.496Z,27.54
2018-04-25T09:19:18.834Z,28.90
2018-04-25T09:21:47.115Z,28.13
2018-04-25T09:24:15.399Z,27.36
2018-04-25T09:26:43.705Z,27.63
2018-04-25T09:29:11.997Z,29.49
2018-04-25T09:31:40.303Z,28.06
2018-04-25T09:34:08.586Z,29.35
2018-04-25T09:36:37.315Z,28.34
2018-04-25T09:39:05.791Z,28.25
2018-04-25T09:41:34.123Z,27.73
2018-04-25T09:44:02.453Z,29.10
2018-04-25T09:46:30.558Z,26.82
2018-04-25T09:48:59.614Z,28.65
2018-04-25T09:51:27.898Z,29.12
2018-04-25T09:53:56.208Z,27.36
2018-04-25T09:56:25.255Z,27.45
2018-04-25T09:58:53.682Z,29.04
2018-04-25T10:01:27.231Z,29.51
2018-04-25T10:03:55.631Z,28.00
2018-04-25T10:08:59.047Z,28.71
2018-04-25T10:11:27.336Z,31.11
2018-04-25T10:13:55.623Z,29.41
2018-04-25T10:16:23.971Z,28.62
2018-04-25T10:18:52.259Z,28.96
2018-04-25T10:21:20.547Z,29.19
2018-04-25T10:23:49.245Z,29.92
2018-04-25T10:26:18.024Z,29.91
2018-04-25T10:28:46.909Z,30.80
2018-04-25T10:31:15.429Z,26.90
2018-04-25T10:33:44.411Z,27.11
2018-04-25T10:36:12.703Z,26.89
2018-04-25T10:38:41.458Z,25.95
2018-04-25T10:41:09.777Z,26.41
2018-04-25T10:43:38.257Z,25.82
2018-04-25T10:46:06.543Z,24.44
2018-04-25T10:48:34.827Z,23.73
2018-04-25T10:51:02.947Z,24.78
2018-04-25T10:53:31.811Z,26.25
2018-04-25T10:56:00.306Z,25.72
2018-04-25T10:58:28.551Z,25.21
2018-04-25T11:00:56.876Z,24.22
2018-04-25T11:03:25.159Z,26.21
2018-04-25T11:05:54.209Z,28.28
2018-04-25T11:08:22.759Z,29.29
2018-04-25T11:10:51.050Z,27.69
2018-04-25T11:13:19.326Z,26.04
2018-04-25T11:15:47.659Z,25.76
2018-04-25T11:18:15.943Z,25.78
2018-04-25T11:20:44.240Z,25.55
2018-04-25T11:23:12.563Z,23.81
2018-04-25T11:25:40.839Z,23.50
2018-04-25T11:28:09.124Z,23.04
2018-04-25T11:30:37.603Z,22.66
2018-04-25T11:33:05.940Z,22.27
2018-04-25T11:35:34.421Z,22.22
2018-04-25T11:38:03.027Z,22.97
2018-04-25T11:40:31.319Z,22.92
2018-04-25T11:42:59.599Z,23.08
2018-04-25T11:45:27.907Z,22.97
2018-04-25T11:47:56.963Z,22.27
2018-04-25T11:50:25.299Z,22.08
2018-04-25T11:52:53.599Z,22.57
2018-04-25T11:55:22.409Z,22.97
2018-04-25T11:57:51.222Z,23.54
2018-04-25T12:00:19.687Z,22.64
2018-04-25T12:02:48.027Z,22.57
2018-04-25T12:05:16.320Z,22.95
2018-04-25T12:07:44.691Z,22.93
2018-04-25T12:10:13.055Z,22.66
2018-04-25T12:12:41.851Z,21.93
2018-04-25T12:15:10.135Z,22.30
2018-04-25T12:17:38.431Z,22.64
2018-04-25T12:20:06.755Z,23.09
2018-04-25T12:22:35.035Z,23.68
2018-04-25T12:25:03.323Z,23.44
2018-04-25T12:27:31.650Z,23.66
2018-04-25T12:29:59.939Z,25.17
2018-04-25T12:32:28.920Z,23.39
2018-04-25T12:34:57.350Z,23.05
2018-04-25T12:37:26.162Z,23.41
2018-04-25T12:39:54.449Z,24.54
2018-04-25T12:42:22.754Z,23.27
2018-04-25T12:44:51.116Z,23.72
2018-04-25T12:47:19.494Z,22.94
2018-04-25T12:49:47.691Z,22.64
2018-04-25T12:52:15.807Z,22.35
2018-04-25T12:54:44.111Z,22.70
2018-04-25T12:57:12.408Z,22.37
2018-04-25T12:59:40.739Z,22.73
2018-04-25T13:02:08.987Z,22.93
2018-04-25T13:04:37.271Z,23.38
2018-04-25T13:07:05.885Z,23.36
2018-04-25T13:09:34.467Z,23.24
2018-04-25T13:12:02.755Z,24.06
2018-04-25T13:14:31.080Z,24.12
2018-04-25T13:16:59.363Z,24.09
2018-04-25T13:19:27.668Z,22.88
2018-04-25T13:21:56.425Z,23.55
2018-04-25T13:24:24.712Z,23.27
2018-04-25T13:26:53.771Z,22.71
2018-04-25T13:29:22.115Z,22.63
2018-04-25T13:31:50.399Z,23.11
2018-04-25T13:34:18.683Z,22.92
2018-04-25T13:36:48.011Z,22.62
2018-04-25T13:39:16.295Z,21.96
2018-04-25T13:41:45.347Z,22.13
2018-04-25T13:44:13.683Z,22.33
2018-04-25T13:46:42.048Z,21.84
2018-04-25T13:49:10.423Z,22.00
2018-04-25T13:51:38.755Z,21.62
2018-04-25T13:54:07.036Z,21.98
2018-04-25T13:56:35.480Z,22.13
2018-04-25T13:59:03.805Z,22.25
2018-04-25T14:01:32.124Z,24.78
2018-04-25T14:04:01.547Z,24.81
2018-04-25T14:06:29.832Z,23.78
2018-04-25T14:08:58.164Z,23.20
2018-04-25T14:11:26.483Z,22.42
2018-04-25T14:13:55.544Z,24.68
2018-04-25T14:16:23.887Z,24.00
2018-04-25T14:18:52.171Z,25.25
2018-04-25T14:21:20.219Z,24.55
2018-04-25T14:23:48.659Z,24.15
2018-04-25T14:26:16.948Z,24.37
2018-04-25T14:28:45.239Z,24.14
2018-04-25T14:31:13.727Z,24.58
2018-04-25T14:33:42.771Z,24.04
2018-04-25T14:36:11.055Z,23.62
2018-04-25T14:38:39.163Z,24.06
2018-04-25T14:41:07.459Z,23.73
2018-04-25T14:43:35.923Z,23.49
2018-04-25T14:46:04.716Z,24.22
2018-04-25T14:48:33.012Z,23.49
2018-04-25T14:51:01.983Z,22.12
2018-04-25T14:53:30.279Z,22.55
2018-04-25T14:55:59.355Z,23.24
2018-04-25T14:58:27.645Z,22.59
2018-04-25T15:00:56.030Z,21.16
2018-04-25T15:03:24.360Z,21.30
2018-04-25T15:05:52.680Z,20.81
2018-04-25T15:08:21.266Z,20.42
2018-04-25T15:10:50.025Z,20.53
2018-04-25T15:13:18.806Z,21.02
2018-04-25T15:15:47.426Z,21.33
2018-04-25T15:18:15.767Z,21.55
2018-04-25T15:20:44.049Z,21.75
2018-04-25T15:23:12.340Z,21.43
2018-04-25T15:25:41.163Z,21.75
2018-04-25T15:28:10.126Z,22.68
2018-04-25T15:30:38.667Z,22.40
2018-04-25T15:33:07.769Z,23.15
2018-04-25T15:35:36.360Z,22.50
2018-04-25T15:38:05.503Z,21.27
2018-04-25T15:40:33.788Z,20.80
2018-04-25T15:43:02.549Z,20.87
2018-04-25T15:45:31.660Z,21.02
2018-04-25T15:48:00.740Z,21.00
2018-04-25T15:50:29.029Z,20.94
2018-04-25T15:52:57.319Z,20.62
2018-04-25T15:55:25.731Z,20.46
2018-04-25T15:57:57.275Z,20.86
2018-04-25T16:00:25.606Z,20.43
2018-04-25T16:02:54.663Z,20.11
2018-04-25T16:05:23.405Z,20.30
2018-04-25T16:07:51.996Z,21.34
2018-04-25T16:10:20.283Z,21.15
2018-04-25T16:12:48.571Z,21.56
2018-04-25T16:15:16.931Z,21.40
2018-04-25T16:17:45.867Z,20.99
2018-04-25T16:20:14.196Z,20.98
2018-04-25T16:22:42.625Z,19.80
2018-04-25T16:25:11.591Z,19.48
2018-04-25T16:27:39.870Z,19.49
2018-04-25T16:30:08.202Z,18.88
2018-04-25T16:32:36.251Z,18.78
2018-04-25T16:35:04.558Z,18.65
2018-04-25T16:37:33.979Z,18.53
2018-04-25T16:40:02.265Z,18.70
2018-04-25T16:42:30.548Z,18.59
2018-04-25T16:44:58.859Z,18.79
2018-04-25T16:47:27.147Z,18.90
2018-04-25T16:49:55.599Z,19.05
2018-04-25T16:52:23.887Z,18.90
2018-04-25T16:54:55.955Z,18.81
2018-04-25T16:57:25.004Z,18.83
2018-04-25T16:59:53.881Z,18.66
2018-04-25T17:02:22.168Z,18.49
2018-04-25T17:04:51.368Z,18.59
2018-04-25T17:07:20.116Z,18.55
2018-04-25T17:09:49.179Z,18.69
2018-04-25T17:12:17.479Z,18.61
2018-04-25T17:14:46.190Z,18.43
2018-04-25T17:17:14.489Z,18.47
2018-04-25T17:19:42.771Z,18.43
2018-04-25T17:22:11.568Z,18.50
2018-04-25T17:24:39.867Z,18.69
2018-04-25T17:27:08.159Z,18.72
2018-04-25T17:29:36.591Z,18.50
2018-04-25T17:32:05.023Z,18.23
2018-04-25T17:34:34.070Z,18.17
2018-04-25T17:37:02.395Z,18.19
2018-04-25T17:39:30.679Z,18.02
2018-04-25T17:41:59.382Z,17.63
2018-04-25T17:44:27.887Z,17.31
2018-04-25T17:46:56.385Z,17.14
2018-04-25T17:49:24.722Z,17.08
2018-04-25T17:51:53.004Z,16.82
2018-04-25T17:54:21.619Z,16.71
2018-04-25T17:56:50.139Z,16.68
2018-04-25T17:59:19.187Z,16.56
2018-04-25T18:01:47.278Z,16.58
2018-04-25T18:04:15.595Z,16.53
2018-04-25T18:06:46.000Z,16.44
2018-04-25T18:11:49.660Z,16.29
2018-04-25T18:14:17.937Z,16.22
2018-04-25T18:16:46.337Z,16.17
2018-04-25T18:19:15.349Z,16.11
2018-04-25T18:21:44.185Z,16.14
2018-04-25T18:24:12.757Z,16.01
2018-04-25T18:26:41.580Z,15.90
2018-04-25T18:29:09.940Z,15.90
2018-04-25T18:31:38.551Z,15.79
2018-04-25T18:34:08.452Z,15.73
2018-04-25T18:36:40.679Z,15.64
2018-04-25T18:39:09.538Z,15.55
2018-04-25T18:41:38.740Z,15.50
2018-04-25T18:44:07.047Z,15.39
2018-04-25T18:46:36.935Z,15.35
2018-04-25T18:49:05.227Z,15.44
2018-04-25T18:51:33.667Z,15.49
2018-04-25T18:54:02.000Z,15.55
2018-04-25T18:56:30.416Z,15.45
2018-04-25T18:58:58.700Z,15.51
2018-04-25T19:01:27.482Z,15.49
2018-04-25T19:03:55.772Z,15.45
2018-04-25T19:06:24.178Z,15.58
2018-04-25T19:08:52.517Z,15.66
2018-04-25T19:11:20.807Z,15.65
2018-04-25T19:13:49.795Z,15.71
2018-04-25T19:16:18.628Z,15.65
2018-04-25T19:18:47.030Z,15.65
2018-04-25T19:21:16.473Z,15.68
2018-04-25T19:23:45.019Z,15.81
2018-04-25T19:26:14.103Z,15.82
2018-04-25T19:28:42.557Z,15.71
2018-04-25T19:31:11.639Z,15.55
2018-04-25T19:33:40.712Z,15.42
2018-04-25T19:36:09.296Z,15.37
2018-04-25T19:38:38.861Z,15.30
2018-04-25T19:41:07.928Z,15.26
2018-04-25T19:43:37.015Z,15.33
2018-04-25T19:46:06.223Z,15.26
2018-04-25T19:48:34.339Z,15.22
2018-04-25T19:51:02.671Z,15.12
2018-04-25T19:53:31.539Z,15.14
2018-04-25T19:56:01.552Z,15.06
2018-04-25T19:58:29.840Z,14.98
2018-04-25T20:00:58.176Z,14.95
2018-04-25T20:03:26.476Z,14.97
2018-04-25T20:05:54.879Z,14.98
2018-04-25T20:08:23.426Z,14.96
2018-04-25T20:10:51.666Z,15.00
2018-04-25T20:13:20.523Z,14.94
2018-04-25T20:15:48.945Z,14.93
2018-04-25T20:18:17.371Z,14.96
2018-04-25T20:20:46.033Z,14.96
2018-04-25T20:23:14.471Z,15.02
2018-04-25T20:25:43.351Z,15.06
2018-04-25T20:28:11.708Z,15.05
2018-04-25T20:30:40.247Z,15.03
2018-04-25T20:33:08.973Z,15.06
2018-04-25T20:35:37.263Z,15.13
2018-04-25T20:38:05.603Z,15.18
2018-04-25T20:40:35.575Z,15.23
2018-04-25T20:43:04.323Z,15.22
2018-04-25T20:45:35.517Z,15.18
2018-04-25T20:48:04.137Z,15.15
2018-04-25T20:50:34.292Z,15.12
2018-04-25T20:53:02.980Z,15.12
2018-04-25T20:55:32.064Z,15.15
2018-04-25T20:58:00.918Z,15.14
2018-04-25T21:00:30.001Z,15.13
2018-04-25T21:02:58.291Z,15.03
2018-04-25T21:05:29.228Z,15.03
2018-04-25T21:07:57.551Z,15.01
2018-04-25T21:10:27.341Z,15.02
2018-04-25T21:12:56.272Z,14.96
2018-04-25T21:15:24.904Z,14.85
2018-04-25T21:17:53.239Z,14.73
2018-04-25T21:20:23.978Z,14.66
2018-04-25T21:22:54.180Z,14.64
2018-04-25T21:25:22.846Z,14.55
2018-04-25T21:27:50.892Z,14.48
2018-04-25T21:30:19.758Z,14.55
2018-04-25T21:32:48.079Z,14.46
2018-04-25T21:35:16.427Z,14.33
2018-04-25T21:37:44.738Z,14.05
2018-04-25T21:40:13.085Z,13.80
2018-04-25T21:42:41.368Z,13.81
2018-04-25T21:45:09.711Z,13.84
2018-04-25T21:47:38.049Z,13.79
2018-04-25T21:50:06.675Z,13.54
2018-04-25T21:52:37.085Z,13.47
2018-04-25T21:55:05.427Z,13.48
2018-04-25T21:57:33.706Z,13.51
2018-04-25T22:00:02.705Z,13.38
2018-04-25T22:02:31.482Z,13.22
2018-04-25T22:05:00.187Z,13.04
2018-04-25T22:07:28.481Z,12.82
2018-04-25T22:09:56.819Z,12.71
2018-04-25T22:12:25.112Z,12.75
2018-04-25T22:14:53.399Z,12.81
2018-04-25T22:17:24.325Z,12.80
2018-04-25T22:19:52.771Z,12.78
2018-04-25T22:22:21.052Z,12.86
2018-04-25T22:24:49.606Z,13.00
2018-04-25T22:27:17.955Z,13.11
2018-04-25T22:29:46.235Z,13.07
2018-04-25T22:32:15.243Z,13.10
2018-04-25T22:34:44.036Z,13.15
2018-04-25T22:37:12.315Z,13.04
2018-04-25T22:39:41.185Z,12.92
2018-04-25T22:42:09.468Z,12.68
2018-04-25T22:44:38.523Z,12.50
2018-04-25T22:47:08.225Z,12.25
2018-04-25T22:49:36.877Z,11.92
2018-04-25T22:52:05.167Z,11.63
2018-04-25T22:54:35.260Z,11.52
2018-04-25T22:57:03.675Z,11.50
2018-04-25T22:59:33.847Z,11.46
2018-04-25T23:02:02.493Z,11.43
2018-04-25T23:04:31.867Z,11.37
2018-04-25T23:07:00.158Z,11.32
2018-04-25T23:09:28.507Z,11.18
2018-04-25T23:11:57.290Z,11.15
2018-04-25T23:14:25.992Z,11.07
2018-04-25T23:16:54.283Z,11.07
2018-04-25T23:19:22.572Z,11.01
2018-04-25T23:21:51.008Z,11.02
2018-04-25T23:24:19.838Z,10.97
2018-04-25T23:26:48.492Z,10.90
2018-04-25T23:29:16.795Z,10.83
2018-04-25T23:31:45.091Z,10.87
2018-04-25T23:34:13.431Z,10.82
2018-04-25T23:36:42.643Z,10.84
2018-04-25T23:39:10.955Z,10.80
2018-04-25T23:41:39.282Z,10.89
2018-04-25T23:44:08.648Z,10.98
2018-04-25T23:46:36.967Z,11.10
2018-04-25T23:49:07.532Z,11.07
2018-04-25T23:51:35.821Z,11.05
2018-04-25T23:54:04.214Z,11.02
2018-04-25T23:56:32.630Z,11.02
2018-04-25T23:59:01.542Z,10.95
